Pagrindinis puslapis
METAR-TAF:

METAR-TAF

Oro uostai :

Posadasas, Argentina

platuma: 27-22S, ilguma: 055-58W, Aukštis: 131 m

Dabartinis oras

Ataskaita buvo paskelbta 31 minutes, ne 06:00 UTC
Vėjas 4 kt iš Pietryčių
Temperatūra 20°C
Drėgmė 73%
Slėgis 1015 hPa
Matomumas 10 km arba daugiau
nėra debesų žemiau 1500 m ir nėra kamuolinių lietaus debesų

METAR: SARP 280600Z 14004KT CAVOK 20/15 Q1015

Laikas: 03:31 (06:31 UTC)

Prognozė

Ataskaita buvo paskelbta 1 valandą ir 31 minutes, ne 05:00 UTC
Prognozė galioja nuo 28 metu 06 UTC su 29 metu 06 UTC
Vėjas 5 kt iš Pietryčių
Matomumas 10 km arba daugiau
nėra debesų žemiau 1500 m ir nėra kamuolinių lietaus debesų
Tikimybė 40%
nuo 28 metu 08 UTC su 28 metu 11 UTC
Matomumas: 1500 m
rūkana

TAF: SARP 280500Z 2806/2906 14005KT CAVOK TX32/2818Z TN16/2809Z PROB40 2808/2811 1500 BR NSC

Orai ataskaitas ir orų prognozės (METAR, TAF).

turimą stotys yra geltonos ir raudonos taškus žemėlapyje.

Perkelti pele per norėdami pamatyti stoties vardą.

Tada spustelėkite, norėdami matyti oro stebėjimo ir prognozės.

Norėdami pakeisti žemėlapį: spustelėkite ant žalios mygtukų su juodo kryžiaus žemyn,; žalią mygtuką su brūkšneliu, jei norite nutolinti; arba žalių rodyklių gretimoms žemėlapius.


METAR-TAF: